^^
Grace C. Lehan Memorial Weather Station Historical Data
Daily Summary for August 7, 2021 Units:  Both    English   Metric
Daily Weekly Monthly Yearly
  High: Low: Average:
Temperature: 44.2 °F /  6.8 °C 32.2 °F /  0.1 °C 38.4 °F /  3.6 °C
Dew Point: 35.7 °F /  2.1 °C 21.2 °F /  -6 °C 25.1 °F /  -3.8 °C
Humidity: 75% 43.5% 59%
Wind Speed: 9.5mph /  15.3km/h - 1.1mph /  1.8km/h
Wind Gust: 22mph /  35.4km/h - -
Wind- - WNW
Pressure: 30.17 in /  1021.6 hPa 29.77 in /  1008 hPa -
Precipitation: 0.00 in /  0 mm    
 
 
Tabular Data for August 7, 2021
Time Temperature Dew Point Pressure Wind Wind Speed Wind Gust Humidity Rainfall Rate (Hourly) solar
00:04 43.1 °F /  6.2 °C 35.7 °F /  2.1 °C 29.77in /  1008hPa NW 6.7mph /  10.8km/h 22mph /  35.4km/h 75% 0.01in /  0.25mm 0 W/m2
00:09 42.9 °F /  6.1 °C 35.3 °F /  1.8 °C 29.78in /  1008.4hPa NW 8.3mph /  13.4km/h 18mph /  29km/h 74.2% 0.01in /  0.25mm 0 W/m2
00:14 42.8 °F /  6 °C 34.8 °F /  1.6 °C 29.78in /  1008.4hPa WNW 5.3mph /  8.5km/h 18mph /  29km/h 73.2% 0.01in /  0.25mm 0 W/m2
00:19 42.7 °F /  5.9 °C 34.2 °F /  1.2 °C 29.79in /  1008.7hPa NW 6.8mph /  10.9km/h 20mph /  32.2km/h 71.9% 0.01in /  0.25mm 0 W/m2
00:24 42.5 °F /  5.8 °C 33.5 °F /  0.8 °C 29.79in /  1008.7hPa NW 9mph /  14.5km/h 20mph /  32.2km/h 70.1% 0.01in /  0.25mm 0 W/m2
00:29 42.3 °F /  5.7 °C 32.8 °F /  0.4 °C 29.79in /  1008.7hPa NW 9.5mph /  15.3km/h 20mph /  32.2km/h 68.6% 0.01in /  0.25mm 0 W/m2
00:34 42.2 °F /  5.7 °C 32.4 °F /  0.2 °C 29.79in /  1008.7hPa WNW 6.8mph /  10.9km/h 20mph /  32.2km/h 67.8% 0.01in /  0.25mm 0 W/m2
00:39 42.1 °F /  5.6 °C 32.3 °F /  0.2 °C 29.80in /  1009hPa NW 4.5mph /  7.2km/h 13mph /  20.9km/h 68% 0.01in /  0.25mm 0 W/m2
00:44 41.9 °F /  5.5 °C 31.9 °F /  -0.1 °C 29.80in /  1009hPa WNW 4.1mph /  6.6km/h 13mph /  20.9km/h 67.5% 0.01in /  0.25mm 0 W/m2
00:49 41.7 °F /  5.4 °C 31.8 °F /  -0.1 °C 29.81in /  1009.4hPa WNW 2.5mph /  4km/h 13mph /  20.9km/h 67.8% 0.01in /  0.25mm 0 W/m2
00:54 41.5 °F /  5.3 °C 31.5 °F /  -0.3 °C 29.81in /  1009.4hPa WNW 2.9mph /  4.7km/h 13mph /  20.9km/h 67.5% 0.01in /  0.25mm 0 W/m2
00:59 41.3 °F /  5.2 °C 31.4 °F /  -0.3 °C 29.81in /  1009.4hPa WNW 1.7mph /  2.7km/h 13mph /  20.9km/h 67.5% 0.01in /  0.25mm 0 W/m2
01:04 41.1 °F /  5.1 °C 31 °F /  -0.6 °C 29.82in /  1009.7hPa WNW 3.3mph /  5.3km/h 13mph /  20.9km/h 67.2% 0.01in /  0.25mm 0 W/m2
01:09 40.9 °F /  4.9 °C 30.8 °F /  -0.7 °C 29.82in /  1009.7hPa WNW 3.3mph /  5.3km/h 10mph /  16.1km/h 67% 0.00in /  0mm 0 W/m2
01:14 40.8 °F /  4.9 °C 30.6 °F /  -0.8 °C 29.82in /  1009.7hPa WNW 3.8mph /  6.1km/h 11mph /  17.7km/h 66.8% 0.00in /  0mm 0 W/m2
01:19 40.7 °F /  4.8 °C 30.5 °F /  -0.8 °C 29.83in /  1010hPa WNW 3.6mph /  5.8km/h 14mph /  22.5km/h 66.6% 0.00in /  0mm 0 W/m2
01:24 40.6 °F /  4.8 °C 30.5 °F /  -0.8 °C 29.83in /  1010hPa WNW 1.6mph /  2.6km/h 14mph /  22.5km/h 67% 0.00in /  0mm 0 W/m2
01:29 40.5 °F /  4.7 °C 30.4 °F /  -0.9 °C 29.83in /  1010hPa WNW 0.6mph /  1km/h 14mph /  22.5km/h 67% 0.00in /  0mm 0 W/m2
01:34 40.3 °F /  4.6 °C 30.6 °F /  -0.8 °C 29.84in /  1010.4hPa WNW 0.4mph /  0.6km/h 14mph /  22.5km/h 68% 0.00in /  0mm 0 W/m2
01:39 40.1 °F /  4.5 °C 30.5 °F /  -0.8 °C 29.84in /  1010.4hPa WNW 1.1mph /  1.8km/h 7mph /  11.3km/h 68.2% 0.00in /  0mm 0 W/m2
01:44 39.9 °F /  4.4 °C 30.2 °F /  -1 °C 29.85in /  1010.7hPa WNW 1.8mph /  2.9km/h 9mph /  14.5km/h 68.2% 0.00in /  0mm 0 W/m2
01:49 39.7 °F /  4.3 °C 30.1 °F /  -1.1 °C 29.85in /  1010.7hPa WNW 1.4mph /  2.3km/h 9mph /  14.5km/h 68% 0.00in /  0mm 0 W/m2
01:54 39.7 °F /  4.3 °C 30.2 °F /  -1 °C 29.86in /  1011.1hPa WNW 0.6mph /  1km/h 9mph /  14.5km/h 68.4% 0.00in /  0mm 0 W/m2
01:59 39.6 °F /  4.2 °C 30.3 °F /  -0.9 °C 29.86in /  1011.1hPa WNW 0.2mph /  0.3km/h 9mph /  14.5km/h 69% 0.00in /  0mm 0 W/m2
02:04 39.5 °F /  4.2 °C 30.2 °F /  -1 °C 29.86in /  1011.1hPa WNW 0.3mph /  0.5km/h 9mph /  14.5km/h 69% 0.00in /  0mm 0 W/m2
02:09 39.4 °F /  4.1 °C 30.2 °F /  -1 °C 29.87in /  1011.4hPa WNW 0.2mph /  0.3km/h 6mph /  9.7km/h 69.2% 0.00in /  0mm 0 W/m2
02:14 39.3 °F /  4.1 °C 30.4 °F /  -0.9 °C 29.87in /  1011.4hPa Calm   6mph /  9.7km/h 70% 0.00in /  0mm 0 W/m2
02:19 39.2 °F /  4 °C 30.2 °F /  -1 °C 29.88in /  1011.7hPa Calm   6mph /  9.7km/h 70% 0.00in /  0mm 0 W/m2
02:24 39.1 °F /  3.9 °C 29.7 °F /  -1.3 °C 29.88in /  1011.7hPa NW 0.7mph /  1.1km/h 8mph /  12.9km/h 68.8% 0.00in /  0mm 0 W/m2
02:29 39 °F /  3.9 °C 29.7 °F /  -1.3 °C 29.88in /  1011.7hPa NW 0.3mph /  0.5km/h 8mph /  12.9km/h 69% 0.00in /  0mm 0 W/m2
02:34 38.9 °F /  3.8 °C 29.3 °F /  -1.5 °C 29.89in /  1012.1hPa NW 1.5mph /  2.4km/h 8mph /  12.9km/h 68.3% 0.00in /  0mm 0 W/m2
02:39 38.9 °F /  3.8 °C 29.3 °F /  -1.5 °C 29.90in /  1012.4hPa WNW 0.5mph /  0.8km/h 6mph /  9.7km/h 68% 0.00in /  0mm 0 W/m2
02:44 38.8 °F /  3.8 °C 29.2 °F /  -1.6 °C 29.90in /  1012.4hPa WNW 1.9mph /  3.1km/h 10mph /  16.1km/h 68% 0.00in /  0mm 0 W/m2
02:49 38.7 °F /  3.7 °C 28.8 °F /  -1.8 °C 29.90in /  1012.4hPa WNW 2.9mph /  4.7km/h 11mph /  17.7km/h 67.2% 0.00in /  0mm 0 W/m2
02:54 38.7 °F /  3.7 °C 28.7 °F /  -1.8 °C 29.90in /  1012.4hPa WNW 1.5mph /  2.4km/h 11mph /  17.7km/h 67% 0.00in /  0mm 0 W/m2
02:59 38.7 °F /  3.7 °C 28.7 °F /  -1.8 °C 29.90in /  1012.4hPa WNW 2.1mph /  3.4km/h 11mph /  17.7km/h 67% 0.00in /  0mm 0 W/m2
03:04 38.6 °F /  3.7 °C 28.6 °F /  -1.9 °C 29.90in /  1012.4hPa West 1.2mph /  1.9km/h 11mph /  17.7km/h 67% 0.00in /  0mm 0 W/m2
03:09 38.6 °F /  3.7 °C 28.6 °F /  -1.9 °C 29.90in /  1012.4hPa West 1.5mph /  2.4km/h 9mph /  14.5km/h 67% 0.00in /  0mm 0 W/m2
03:14 38.5 °F /  3.6 °C 28.5 °F /  -1.9 °C 29.90in /  1012.4hPa West 0.5mph /  0.8km/h 9mph /  14.5km/h 67% 0.00in /  0mm 0 W/m2
03:19 38.3 °F /  3.5 °C 28.4 °F /  -2 °C 29.91in /  1012.8hPa WSW 0.4mph /  0.6km/h 9mph /  14.5km/h 67% 0.00in /  0mm 0 W/m2
03:24 38.2 °F /  3.4 °C 28.2 °F /  -2.1 °C 29.91in /  1012.8hPa WSW 0.1mph /  0.2km/h 9mph /  14.5km/h 67% 0.00in /  0mm 0 W/m2
03:29 38.1 °F /  3.4 °C 28.4 °F /  -2 °C 29.92in /  1013.1hPa WSW 0.2mph /  0.3km/h 9mph /  14.5km/h 68% 0.00in /  0mm 0 W/m2
03:34 37.9 °F /  3.3 °C 28.3 °F /  -2.1 °C 29.92in /  1013.1hPa WSW 0.1mph /  0.2km/h 9mph /  14.5km/h 68% 0.00in /  0mm 0 W/m2
03:39 37.7 °F /  3.2 °C 28.1 °F /  -2.2 °C 29.92in /  1013.1hPa WSW 0.3mph /  0.5km/h 2mph /  3.2km/h 68% 0.00in /  0mm 0 W/m2
03:44 37.5 °F /  3.1 °C 27.9 °F /  -2.3 °C 29.92in /  1013.1hPa Calm   2mph /  3.2km/h 68% 0.00in /  0mm 0 W/m2
03:49 37.4 °F /  3 °C 27.9 °F /  -2.3 °C 29.92in /  1013.1hPa Calm   2mph /  3.2km/h 68.3% 0.00in /  0mm 0 W/m2
03:54 37.2 °F /  2.9 °C 27.9 °F /  -2.3 °C 29.92in /  1013.1hPa Calm   2mph /  3.2km/h 68.9% 0.00in /  0mm 0 W/m2
03:59 37 °F /  2.8 °C 27.8 °F /  -2.3 °C 29.92in /  1013.1hPa West 0.4mph /  0.6km/h 5mph /  8km/h 69% 0.00in /  0mm 0 W/m2
04:09 36.9 °F /  2.7 °C 27.4 °F /  -2.6 °C 29.92in /  1013.1hPa WNW 0.2mph /  0.3km/h 2mph /  3.2km/h 68% 0.00in /  0mm 0 W/m2
04:14 37 °F /  2.8 °C 27.4 °F /  -2.6 °C 29.92in /  1013.1hPa WNW 1.9mph /  3.1km/h 10mph /  16.1km/h 68% 0.00in /  0mm 0 W/m2
04:19 37 °F /  2.8 °C 27.5 °F /  -2.5 °C 29.92in /  1013.1hPa WNW 0.2mph /  0.3km/h 10mph /  16.1km/h 68.2% 0.00in /  0mm 0 W/m2
04:24 37 °F /  2.8 °C 27.4 °F /  -2.6 °C 29.93in /  1013.4hPa WNW 0.1mph /  0.2km/h 10mph /  16.1km/h 68% 0.00in /  0mm 0 W/m2
04:29 36.9 °F /  2.7 °C 27.3 °F /  -2.6 °C 29.93in /  1013.4hPa West 0.4mph /  0.6km/h 10mph /  16.1km/h 68% 0.00in /  0mm 0 W/m2
04:34 36.8 °F /  2.7 °C 27.2 °F /  -2.7 °C 29.94in /  1013.8hPa West 0.9mph /  1.4km/h 10mph /  16.1km/h 68% 0.00in /  0mm 0 W/m2
04:39 36.8 °F /  2.7 °C 27.2 °F /  -2.7 °C 29.94in /  1013.8hPa West 0.2mph /  0.3km/h 7mph /  11.3km/h 68% 0.00in /  0mm 0 W/m2
04:44 36.7 °F /  2.6 °C 27.2 °F /  -2.7 °C 29.94in /  1013.8hPa Calm   7mph /  11.3km/h 68% 0.00in /  0mm 0 W/m2
04:49 36.6 °F /  2.6 °C 26.9 °F /  -2.8 °C 29.94in /  1013.8hPa Calm   7mph /  11.3km/h 67.6% 0.00in /  0mm 0 W/m2
04:54 36.5 °F /  2.5 °C 26.8 °F /  -2.9 °C 29.96in /  1014.4hPa Calm   7mph /  11.3km/h 67.6% 0.00in /  0mm 0 W/m2
04:59 36.4 °F /  2.4 °C 26.5 °F /  -3.1 °C 29.96in /  1014.4hPa Calm   7mph /  11.3km/h 67.1% 0.00in /  0mm 0 W/m2
05:04 36.2 °F /  2.3 °C 26.3 °F /  -3.2 °C 29.97in /  1014.8hPa Calm   7mph /  11.3km/h 67% 0.00in /  0mm 0 W/m2
05:09 36.1 °F /  2.3 °C 26.5 °F /  -3.1 °C 29.97in /  1014.8hPa Calm     67.7% 0.00in /  0mm 0 W/m2
05:14 36 °F /  2.2 °C 26.5 °F /  -3.1 °C 29.97in /  1014.8hPa Calm     68.2% 0.00in /  0mm 0 W/m2
05:19 35.8 °F /  2.1 °C 26.7 °F /  -2.9 °C 29.98in /  1015.1hPa Calm     69.3% 0.00in /  0mm 0 W/m2
05:24 35.6 °F /  2 °C 26.7 °F /  -2.9 °C 29.98in /  1015.1hPa WNW 1mph /  1.6km/h 11mph /  17.7km/h 70% 0.00in /  0mm 0 W/m2
05:29 35.4 °F /  1.9 °C 26.4 °F /  -3.1 °C 29.99in /  1015.5hPa WNW 0.7mph /  1.1km/h 11mph /  17.7km/h 69.4% 0.00in /  0mm 0 W/m2
05:34 35.4 °F /  1.9 °C 26.3 °F /  -3.2 °C 29.99in /  1015.5hPa WNW 0.1mph /  0.2km/h 11mph /  17.7km/h 69.2% 0.00in /  0mm 0 W/m2
05:39 35.4 °F /  1.9 °C 26 °F /  -3.3 °C 29.99in /  1015.5hPa WNW 2.2mph /  3.5km/h 11mph /  17.7km/h 68.3% 0.00in /  0mm 0 W/m2
05:44 35.6 °F /  2 °C 25.5 °F /  -3.6 °C 29.99in /  1015.5hPa WNW 0.9mph /  1.4km/h 11mph /  17.7km/h 66.4% 0.00in /  0mm 0 W/m2
05:49 35.9 °F /  2.2 °C 25.5 °F /  -3.6 °C 30.00in /  1015.8hPa WNW 2.1mph /  3.4km/h 11mph /  17.7km/h 65.6% 0.00in /  0mm 0 W/m2
05:54 36 °F /  2.2 °C 25.2 °F /  -3.8 °C 30.00in /  1015.8hPa NW 1.1mph /  1.8km/h 11mph /  17.7km/h 64.4% 0.00in /  0mm 0 W/m2
05:59 36.2 °F /  2.3 °C 24.8 °F /  -4 °C 30.00in /  1015.8hPa WNW 2.9mph /  4.7km/h 14mph /  22.5km/h 62.9% 0.00in /  0mm 0 W/m2
06:04 36.3 °F /  2.4 °C 24.9 °F /  -3.9 °C 30.00in /  1015.8hPa WNW 0.5mph /  0.8km/h 14mph /  22.5km/h 62.9% 0.00in /  0mm 0 W/m2
06:09 36.4 °F /  2.4 °C 24.8 °F /  -4 °C 30.00in /  1015.8hPa WNW 1.2mph /  1.9km/h 7mph /  11.3km/h 62.6% 0.00in /  0mm 0 W/m2
06:14 36.3 °F /  2.4 °C 24.6 °F /  -4.1 °C 30.00in /  1015.8hPa WNW 4.1mph /  6.6km/h 12mph /  19.3km/h 62% 0.00in /  0mm 0 W/m2
06:19 36.4 °F /  2.4 °C 24.2 °F /  -4.3 °C 30.00in /  1015.8hPa WNW 3.8mph /  6.1km/h 12mph /  19.3km/h 61% 0.00in /  0mm 0 W/m2
06:24 36.5 °F /  2.5 °C 24.3 °F /  -4.3 °C 30.01in /  1016.1hPa WNW 2.9mph /  4.7km/h 13mph /  20.9km/h 61% 0.00in /  0mm 0 W/m2
06:29 36.5 °F /  2.5 °C 24.1 °F /  -4.4 °C 30.01in /  1016.1hPa WNW 3.1mph /  5km/h 13mph /  20.9km/h 60.3% 0.00in /  0mm 0 W/m2
06:34 36.6 °F /  2.6 °C 24.2 °F /  -4.3 °C 30.01in /  1016.1hPa WNW 1.4mph /  2.3km/h 13mph /  20.9km/h 60.3% 0.00in /  0mm 0 W/m2
06:39 36.6 °F /  2.6 °C 24 °F /  -4.4 °C 30.01in /  1016.1hPa NW 2mph /  3.2km/h 9mph /  14.5km/h 60% 0.00in /  0mm 0 W/m2
06:44 36.6 °F /  2.6 °C 23.9 °F /  -4.5 °C 30.01in /  1016.1hPa WNW 1.3mph /  2.1km/h 10mph /  16.1km/h 59.6% 0.00in /  0mm 0 W/m2
06:49 36.6 °F /  2.6 °C 23.9 °F /  -4.5 °C 30.01in /  1016.1hPa NW 0.9mph /  1.4km/h 10mph /  16.1km/h 59.7% 0.00in /  0mm 0 W/m2
06:54 36.5 °F /  2.5 °C 23.7 °F /  -4.6 °C 30.02in /  1016.5hPa WNW 1.5mph /  2.4km/h 10mph /  16.1km/h 59.5% 0.00in /  0mm 0 W/m2
06:59 36.4 °F /  2.4 °C 23.5 °F /  -4.7 °C 30.02in /  1016.5hPa WNW 0.5mph /  0.8km/h 10mph /  16.1km/h 59.2% 0.00in /  0mm 0 W/m2
07:04 36.4 °F /  2.4 °C 23.4 °F /  -4.8 °C 30.02in /  1016.5hPa WNW 0.4mph /  0.6km/h 10mph /  16.1km/h 59% 0.00in /  0mm 0 W/m2
07:09 36.2 °F /  2.3 °C 23.3 °F /  -4.8 °C 30.02in /  1016.5hPa WNW 0.5mph /  0.8km/h 7mph /  11.3km/h 59% 0.00in /  0mm 7 W/m2
07:14 36.1 °F /  2.3 °C 23.2 °F /  -4.9 °C 30.02in /  1016.5hPa WNW 0.5mph /  0.8km/h 7mph /  11.3km/h 59% 0.00in /  0mm 7 W/m2
07:19 36 °F /  2.2 °C 23.5 °F /  -4.7 °C 30.03in /  1016.8hPa WNW 0.1mph /  0.2km/h 7mph /  11.3km/h 60% 0.00in /  0mm 11 W/m2
07:24 35.9 °F /  2.2 °C 23.6 °F /  -4.7 °C 30.03in /  1016.8hPa Calm   7mph /  11.3km/h 60.5% 0.00in /  0mm 12 W/m2
07:29 35.7 °F /  2.1 °C 24 °F /  -4.4 °C 30.03in /  1016.8hPa WNW 0.1mph /  0.2km/h 7mph /  11.3km/h 62.1% 0.00in /  0mm 19 W/m2
07:34 35.5 °F /  1.9 °C 24.1 °F /  -4.4 °C 30.03in /  1016.8hPa Calm   7mph /  11.3km/h 63% 0.00in /  0mm 28 W/m2
07:39 35.4 °F /  1.9 °C 24.3 °F /  -4.3 °C 30.04in /  1017.2hPa Calm     63.6% 0.00in /  0mm 40 W/m2
07:44 35.4 °F /  1.9 °C 24.8 °F /  -4 °C 30.04in /  1017.2hPa Calm     64.9% 0.00in /  0mm 58 W/m2
07:49 35.5 °F /  1.9 °C 24.7 °F /  -4.1 °C 30.05in /  1017.5hPa Calm     64.4% 0.00in /  0mm 84 W/m2
07:54 35.8 °F /  2.1 °C 25.1 °F /  -3.8 °C 30.05in /  1017.5hPa Calm     64.7% 0.00in /  0mm 84 W/m2
07:59 36.3 °F /  2.4 °C 25.3 °F /  -3.7 °C 30.06in /  1017.8hPa Calm     64% 0.00in /  0mm 107 W/m2
08:00 36.5 °F /  2.5 °C 25.5 °F /  -3.6 °C 30.05in /  1017.5hPa Calm     64% 0.00in /  0mm 107 W/m2
08:09 37.7 °F /  3.2 °C 26.5 °F /  -3.1 °C 30.06in /  1017.8hPa Calm     63.6% 0.00in /  0mm 148 W/m2
08:14 38.6 °F /  3.7 °C 26.8 °F /  -2.9 °C 30.06in /  1017.8hPa Calm     62.4% 0.00in /  0mm 148 W/m2
08:19 39.5 °F /  4.2 °C 27 °F /  -2.8 °C 30.06in /  1017.8hPa Calm     60.7% 0.00in /  0mm 181 W/m2
08:24 40.3 °F /  4.6 °C 27 °F /  -2.8 °C 30.07in /  1018.2hPa Calm     58.8% 0.00in /  0mm 192 W/m2
08:29 40.9 °F /  4.9 °C 26.6 °F /  -3 °C 30.07in /  1018.2hPa WNW 0.6mph /  1km/h 3mph /  4.8km/h 56.5% 0.00in /  0mm 176 W/m2
08:34 41.3 °F /  5.2 °C 26.9 °F /  -2.8 °C 30.07in /  1018.2hPa Calm   3mph /  4.8km/h 56.2% 0.00in /  0mm 174 W/m2
08:39 41.8 °F /  5.4 °C 27.1 °F /  -2.7 °C 30.08in /  1018.5hPa West 0.2mph /  0.3km/h 3mph /  4.8km/h 55.8% 0.00in /  0mm 207 W/m2
08:44 42.2 °F /  5.7 °C 27.1 °F /  -2.7 °C 30.08in /  1018.5hPa Calm   3mph /  4.8km/h 54.9% 0.00in /  0mm 216 W/m2
08:49 42.6 °F /  5.9 °C 26.7 °F /  -2.9 °C 30.08in /  1018.5hPa West 0.3mph /  0.5km/h 3mph /  4.8km/h 53.1% 0.00in /  0mm 202 W/m2
08:54 42.9 °F /  6.1 °C 26.3 °F /  -3.2 °C 30.08in /  1018.5hPa West 0.3mph /  0.5km/h 3mph /  4.8km/h 51.5% 0.00in /  0mm 171 W/m2
08:59 43 °F /  6.1 °C 26.7 °F /  -2.9 °C 30.08in /  1018.5hPa WNW 1.3mph /  2.1km/h 9mph /  14.5km/h 52.3% 0.00in /  0mm 148 W/m2
09:04 42.8 °F /  6 °C 25.7 °F /  -3.5 °C 30.08in /  1018.5hPa WNW 0.5mph /  0.8km/h 9mph /  14.5km/h 50.5% 0.00in /  0mm 155 W/m2
09:09 42.6 °F /  5.9 °C 25.5 °F /  -3.6 °C 30.09in /  1018.8hPa WNW 0.4mph /  0.6km/h 4mph /  6.4km/h 50.6% 0.00in /  0mm 200 W/m2
09:14 42.4 °F /  5.8 °C 25.8 °F /  -3.4 °C 30.09in /  1018.8hPa Calm   4mph /  6.4km/h 51.3% 0.00in /  0mm 172 W/m2
09:19 42.4 °F /  5.8 °C 25.6 °F /  -3.6 °C 30.09in /  1018.8hPa West 0.9mph /  1.4km/h 4mph /  6.4km/h 51.2% 0.00in /  0mm 195 W/m2
09:24 42.3 °F /  5.7 °C 25.4 °F /  -3.7 °C 30.10in /  1019.2hPa West 1.6mph /  2.6km/h 9mph /  14.5km/h 51% 0.00in /  0mm 207 W/m2
09:29 42.1 °F /  5.6 °C 25 °F /  -3.9 °C 30.10in /  1019.2hPa West 1.9mph /  3.1km/h 10mph /  16.1km/h 50.5% 0.00in /  0mm 141 W/m2
09:34 41.8 °F /  5.4 °C 24.8 °F /  -4 °C 30.10in /  1019.2hPa WNW 5mph /  8km/h 14mph /  22.5km/h 50.6% 0.00in /  0mm 158 W/m2
09:39 41.4 °F /  5.2 °C 24.4 °F /  -4.2 °C 30.11in /  1019.5hPa WNW 5.8mph /  9.3km/h 14mph /  22.5km/h 50.5% 0.00in /  0mm 158 W/m2
09:44 41.1 °F /  5.1 °C 23.9 °F /  -4.5 °C 30.11in /  1019.5hPa WNW 2.5mph /  4km/h 14mph /  22.5km/h 50.2% 0.00in /  0mm 151 W/m2
09:49 41 °F /  5 °C 25 °F /  -3.9 °C 30.11in /  1019.5hPa WNW 1mph /  1.6km/h 14mph /  22.5km/h 52.6% 0.00in /  0mm 163 W/m2
09:54 41.2 °F /  5.1 °C 25.6 °F /  -3.6 °C 30.11in /  1019.5hPa WNW 2.7mph /  4.3km/h 14mph /  22.5km/h 53.4% 0.00in /  0mm 176 W/m2
09:59 41.3 °F /  5.2 °C 24.8 °F /  -4 °C 30.11in /  1019.5hPa WNW 4.3mph /  6.9km/h 14mph /  22.5km/h 51.5% 0.00in /  0mm 204 W/m2
10:04 41.3 °F /  5.2 °C 24.6 °F /  -4.1 °C 30.11in /  1019.5hPa West 4.3mph /  6.9km/h 14mph /  22.5km/h 51% 0.00in /  0mm 276 W/m2
10:09 41.4 °F /  5.2 °C 24.9 °F /  -3.9 °C 30.11in /  1019.5hPa West 1.8mph /  2.9km/h 11mph /  17.7km/h 51.5% 0.00in /  0mm 294 W/m2
10:14 41.7 °F /  5.4 °C 25.4 °F /  -3.7 °C 30.11in /  1019.5hPa NW 1.2mph /  1.9km/h 11mph /  17.7km/h 52% 0.00in /  0mm 232 W/m2
10:19 41.8 °F /  5.4 °C 25.3 °F /  -3.7 °C 30.11in /  1019.5hPa WNW 4.1mph /  6.6km/h 11mph /  17.7km/h 51.5% 0.00in /  0mm 155 W/m2
10:24 41.7 °F /  5.4 °C 24.5 °F /  -4.2 °C 30.11in /  1019.5hPa NW 2.6mph /  4.2km/h 11mph /  17.7km/h 50.2% 0.00in /  0mm 202 W/m2
10:29 41.6 °F /  5.3 °C 25 °F /  -3.9 °C 30.11in /  1019.5hPa WNW 1.8mph /  2.9km/h 11mph /  17.7km/h 51.4% 0.00in /  0mm 236 W/m2
10:34 41.7 °F /  5.4 °C 25.1 °F /  -3.8 °C 30.10in /  1019.2hPa WNW 4mph /  6.4km/h 12mph /  19.3km/h 51.3% 0.00in /  0mm 167 W/m2
10:39 41.6 °F /  5.3 °C 24.4 °F /  -4.2 °C 30.10in /  1019.2hPa WNW 4.4mph /  7.1km/h 12mph /  19.3km/h 50.1% 0.00in /  0mm 142 W/m2
10:44 41.4 °F /  5.2 °C 24.3 °F /  -4.3 °C 30.10in /  1019.2hPa WNW 2.6mph /  4.2km/h 12mph /  19.3km/h 50.3% 0.00in /  0mm 153 W/m2
10:49 41.4 °F /  5.2 °C 25.1 °F /  -3.8 °C 30.10in /  1019.2hPa WNW 1.5mph /  2.4km/h 12mph /  19.3km/h 51.8% 0.00in /  0mm 172 W/m2
10:54 41.5 °F /  5.3 °C 25.3 °F /  -3.7 °C 30.10in /  1019.2hPa WNW 1.2mph /  1.9km/h 12mph /  19.3km/h 52.3% 0.00in /  0mm 229 W/m2
10:59 41.6 °F /  5.3 °C 25.7 °F /  -3.5 °C 30.10in /  1019.2hPa WNW 1mph /  1.6km/h 12mph /  19.3km/h 52.7% 0.00in /  0mm 223 W/m2
11:04 42 °F /  5.6 °C 26.2 °F /  -3.2 °C 30.10in /  1019.2hPa West 0.4mph /  0.6km/h 12mph /  19.3km/h 53.1% 0.00in /  0mm 223 W/m2
11:09 42.3 °F /  5.7 °C 25.7 °F /  -3.5 °C 30.10in /  1019.2hPa WNW 1.7mph /  2.7km/h 6mph /  9.7km/h 51.4% 0.00in /  0mm 188 W/m2
11:14 42.5 °F /  5.8 °C 25.9 °F /  -3.4 °C 30.10in /  1019.2hPa WNW 0.6mph /  1km/h 6mph /  9.7km/h 51.4% 0.00in /  0mm 195 W/m2
11:19 42.7 °F /  5.9 °C 25.5 °F /  -3.6 °C 30.09in /  1018.8hPa WNW 0.8mph /  1.3km/h 7mph /  11.3km/h 50.2% 0.00in /  0mm 199 W/m2
11:24 42.7 °F /  5.9 °C 25.6 °F /  -3.6 °C 30.09in /  1018.8hPa WNW 1.6mph /  2.6km/h 7mph /  11.3km/h 50.5% 0.00in /  0mm 213 W/m2
11:29 42.6 °F /  5.9 °C 25 °F /  -3.9 °C 30.09in /  1018.8hPa WNW 1.3mph /  2.1km/h 9mph /  14.5km/h 49.3% 0.00in /  0mm 218 W/m2
11:34 42.6 °F /  5.9 °C 25.3 °F /  -3.7 °C 30.09in /  1018.8hPa WNW 0.7mph /  1.1km/h 9mph /  14.5km/h 50% 0.00in /  0mm 204 W/m2
11:39 42.5 °F /  5.8 °C 24.7 °F /  -4.1 °C 30.09in /  1018.8hPa West 3mph /  4.8km/h 12mph /  19.3km/h 48.9% 0.00in /  0mm 179 W/m2
11:44 42.3 °F /  5.7 °C 24.2 °F /  -4.3 °C 30.09in /  1018.8hPa WNW 3.8mph /  6.1km/h 13mph /  20.9km/h 48.4% 0.00in /  0mm 165 W/m2
11:49 42 °F /  5.6 °C 24.8 °F /  -4 °C 30.09in /  1018.8hPa WNW 1.2mph /  1.9km/h 13mph /  20.9km/h 50.3% 0.00in /  0mm 158 W/m2
11:54 41.9 °F /  5.5 °C 24.9 °F /  -3.9 °C 30.09in /  1018.8hPa WNW 1.6mph /  2.6km/h 13mph /  20.9km/h 50.6% 0.00in /  0mm 195 W/m2
11:59 41.8 °F /  5.4 °C 24.5 °F /  -4.2 °C 30.09in /  1018.8hPa WNW 5.5mph /  8.9km/h 13mph /  20.9km/h 49.9% 0.00in /  0mm 223 W/m2
12:00 41.8 °F /  5.4 °C 24.1 °F /  -4.4 °C 30.09in /  1018.8hPa WNW 9mph /  14.5km/h 13mph /  20.9km/h 49% 0.00in /  0mm 211 W/m2
12:09 41.9 °F /  5.5 °C 25.8 °F /  -3.4 °C 30.09in /  1018.8hPa WNW 1.2mph /  1.9km/h 7mph /  11.3km/h 52.6% 0.00in /  0mm 239 W/m2
12:14 42.1 °F /  5.6 °C 25.2 °F /  -3.8 °C 30.09in /  1018.8hPa WNW 3mph /  4.8km/h 11mph /  17.7km/h 50.8% 0.00in /  0mm 262 W/m2
12:19 42.3 °F /  5.7 °C 25.1 °F /  -3.8 °C 30.09in /  1018.8hPa WNW 1.7mph /  2.7km/h 11mph /  17.7km/h 50.3% 0.00in /  0mm 295 W/m2
12:24 42.6 °F /  5.9 °C 25.6 °F /  -3.6 °C 30.09in /  1018.8hPa WNW 3.3mph /  5.3km/h 11mph /  17.7km/h 50.8% 0.00in /  0mm 341 W/m2
12:29 42.8 °F /  6 °C 24.5 °F /  -4.2 °C 30.09in /  1018.8hPa WNW 6.3mph /  10.1km/h 13mph /  20.9km/h 48% 0.00in /  0mm 341 W/m2
12:34 42.8 °F /  6 °C 24.3 °F /  -4.3 °C 30.09in /  1018.8hPa WNW 2.4mph /  3.9km/h 13mph /  20.9km/h 47.6% 0.00in /  0mm 295 W/m2
12:39 42.9 °F /  6.1 °C 24.7 °F /  -4.1 °C 30.09in /  1018.8hPa NW 4mph /  6.4km/h 13mph /  20.9km/h 48.3% 0.00in /  0mm 287 W/m2
12:44 43.1 °F /  6.2 °C 24.4 °F /  -4.2 °C 30.10in /  1019.2hPa WNW 4mph /  6.4km/h 13mph /  20.9km/h 47.3% 0.00in /  0mm 274 W/m2
12:49 43.1 °F /  6.2 °C 24.3 °F /  -4.3 °C 30.09in /  1018.8hPa WNW 3.9mph /  6.3km/h 13mph /  20.9km/h 47.2% 0.00in /  0mm 322 W/m2
12:54 43 °F /  6.1 °C 24.1 °F /  -4.4 °C 30.09in /  1018.8hPa WNW 5mph /  8km/h 13mph /  20.9km/h 46.8% 0.00in /  0mm 144 W/m2
12:59 43 °F /  6.1 °C 23.7 °F /  -4.6 °C 30.09in /  1018.8hPa WNW 5.4mph /  8.7km/h 13mph /  20.9km/h 46.1% 0.00in /  0mm 199 W/m2
13:04 42.8 °F /  6 °C 23.5 °F /  -4.7 °C 30.10in /  1019.2hPa WNW 3.8mph /  6.1km/h 13mph /  20.9km/h 46% 0.00in /  0mm 188 W/m2
13:09 42.7 °F /  5.9 °C 23.8 °F /  -4.6 °C 30.10in /  1019.2hPa West 1.8mph /  2.9km/h 12mph /  19.3km/h 46.8% 0.00in /  0mm 183 W/m2
13:14 42.8 °F /  6 °C 24.5 °F /  -4.2 °C 30.10in /  1019.2hPa West 2.4mph /  3.9km/h 12mph /  19.3km/h 48% 0.00in /  0mm 276 W/m2
13:19 43.1 °F /  6.2 °C 24.3 °F /  -4.3 °C 30.10in /  1019.2hPa WSW 0.9mph /  1.4km/h 12mph /  19.3km/h 47.1% 0.00in /  0mm 234 W/m2
13:24 43.4 °F /  6.3 °C 24.1 °F /  -4.4 °C 30.10in /  1019.2hPa West 2.6mph /  4.2km/h 12mph /  19.3km/h 46.2% 0.00in /  0mm 153 W/m2
13:29 43.4 °F /  6.3 °C 23.5 °F /  -4.7 °C 30.09in /  1018.8hPa WNW 1.4mph /  2.3km/h 12mph /  19.3km/h 45% 0.00in /  0mm 77 W/m2
13:34 43.2 °F /  6.2 °C 23.7 °F /  -4.6 °C 30.09in /  1018.8hPa WNW 2.8mph /  4.5km/h 12mph /  19.3km/h 45.8% 0.00in /  0mm 137 W/m2
13:39 42.9 °F /  6.1 °C 23.6 °F /  -4.7 °C 30.09in /  1018.8hPa WNW 2.5mph /  4km/h 10mph /  16.1km/h 46.2% 0.00in /  0mm 102 W/m2
13:44 42.6 °F /  5.9 °C 23.2 °F /  -4.9 °C 30.09in /  1018.8hPa WNW 1.9mph /  3.1km/h 10mph /  16.1km/h 45.8% 0.00in /  0mm 230 W/m2
13:49 42.5 °F /  5.8 °C 23.3 °F /  -4.8 °C 30.09in /  1018.8hPa WSW 2.5mph /  4km/h 10mph /  16.1km/h 46.2% 0.00in /  0mm 253 W/m2
13:54 42.8 °F /  6 °C 23.4 °F /  -4.8 °C 30.09in /  1018.8hPa WSW 1.6mph /  2.6km/h 10mph /  16.1km/h 45.9% 0.00in /  0mm 209 W/m2
13:59 43 °F /  6.1 °C 23.7 °F /  -4.6 °C 30.09in /  1018.8hPa West 1.4mph /  2.3km/h 10mph /  16.1km/h 46% 0.00in /  0mm 276 W/m2
14:04 43.4 °F /  6.3 °C 24.2 °F /  -4.3 °C 30.09in /  1018.8hPa West 0.7mph /  1.1km/h 10mph /  16.1km/h 46.3% 0.00in /  0mm 155 W/m2
14:09 43.9 °F /  6.6 °C 24 °F /  -4.4 °C 30.09in /  1018.8hPa West 0.4mph /  0.6km/h 6mph /  9.7km/h 45.2% 0.00in /  0mm 172 W/m2
14:14 44.2 °F /  6.8 °C 23.8 °F /  -4.6 °C 30.09in /  1018.8hPa West 0.9mph /  1.4km/h 6mph /  9.7km/h 44.3% 0.00in /  0mm 135 W/m2
14:19 44.1 °F /  6.7 °C 23.8 °F /  -4.6 °C 30.09in /  1018.8hPa WNW 1.7mph /  2.7km/h 9mph /  14.5km/h 44.5% 0.00in /  0mm 125 W/m2
14:24 43.9 °F /  6.6 °C 23.1 °F /  -4.9 °C 30.10in /  1019.2hPa West 2.4mph /  3.9km/h 10mph /  16.1km/h 43.5% 0.00in /  0mm 149 W/m2
14:29 43.7 °F /  6.5 °C 23.5 °F /  -4.7 °C 30.10in /  1019.2hPa West 0.7mph /  1.1km/h 10mph /  16.1km/h 44.6% 0.00in /  0mm 79 W/m2
14:34 43.6 °F /  6.4 °C 23.9 °F /  -4.5 °C 30.10in /  1019.2hPa West 0.2mph /  0.3km/h 10mph /  16.1km/h 45.4% 0.00in /  0mm 76 W/m2
14:39 43.6 °F /  6.4 °C 23.6 °F /  -4.7 °C 30.09in /  1018.8hPa West 1.3mph /  2.1km/h 5mph /  8km/h 45% 0.00in /  0mm 74 W/m2
14:44 43.3 °F /  6.3 °C 23.4 °F /  -4.8 °C 30.10in /  1019.2hPa West 2.5mph /  4km/h 9mph /  14.5km/h 45% 0.00in /  0mm 77 W/m2
14:49 42.9 °F /  6.1 °C 23.1 °F /  -4.9 °C 30.09in /  1018.8hPa WNW 1.7mph /  2.7km/h 9mph /  14.5km/h 45% 0.00in /  0mm 79 W/m2
14:54 42.7 °F /  5.9 °C 22.8 °F /  -5.1 °C 30.09in /  1018.8hPa WNW 0.1mph /  0.2km/h 9mph /  14.5km/h 45% 0.00in /  0mm 83 W/m2
14:59 42.5 °F /  5.8 °C 22.3 °F /  -5.4 °C 30.09in /  1018.8hPa West 1.9mph /  3.1km/h 9mph /  14.5km/h 44.3% 0.00in /  0mm 62 W/m2
15:04 42.4 °F /  5.8 °C 22.8 °F /  -5.1 °C 30.10in /  1019.2hPa WSW 0.3mph /  0.5km/h 9mph /  14.5km/h 45.6% 0.00in /  0mm 49 W/m2
15:09 42.3 °F /  5.7 °C 23.5 °F /  -4.7 °C 30.10in /  1019.2hPa WSW 0.1mph /  0.2km/h 3mph /  4.8km/h 46.9% 0.00in /  0mm 40 W/m2
15:14 42.2 °F /  5.7 °C 23.2 °F /  -4.9 °C 30.10in /  1019.2hPa Calm   3mph /  4.8km/h 46.6% 0.00in /  0mm 42 W/m2
15:19 42 °F /  5.6 °C 23 °F /  -5 °C 30.10in /  1019.2hPa Calm   3mph /  4.8km/h 46.5% 0.00in /  0mm 42 W/m2
15:24 41.9 °F /  5.5 °C 23.3 °F /  -4.8 °C 30.10in /  1019.2hPa WSW 0.6mph /  1km/h 4mph /  6.4km/h 47.3% 0.00in /  0mm 40 W/m2
15:29 41.8 °F /  5.4 °C 23.3 °F /  -4.8 °C 30.10in /  1019.2hPa WSW 0.4mph /  0.6km/h 4mph /  6.4km/h 47.5% 0.00in /  0mm 40 W/m2
15:34 41.7 °F /  5.4 °C 23.3 °F /  -4.8 °C 30.11in /  1019.5hPa WSW 0.4mph /  0.6km/h 4mph /  6.4km/h 47.7% 0.00in /  0mm 32 W/m2
15:39 41.5 °F /  5.3 °C 22.9 °F /  -5.1 °C 30.11in /  1019.5hPa Calm   3mph /  4.8km/h 47.1% 0.00in /  0mm 25 W/m2
15:44 41.4 °F /  5.2 °C 22.8 °F /  -5.1 °C 30.11in /  1019.5hPa WSW 0.3mph /  0.5km/h 3mph /  4.8km/h 47% 0.00in /  0mm 25 W/m2
15:49 41.3 °F /  5.2 °C 22.6 °F /  -5.2 °C 30.11in /  1019.5hPa WSW 0.3mph /  0.5km/h 4mph /  6.4km/h 47% 0.00in /  0mm 18 W/m2
15:54 41.1 °F /  5.1 °C 22.9 °F /  -5.1 °C 30.12in /  1019.9hPa WSW 0.1mph /  0.2km/h 4mph /  6.4km/h 48% 0.00in /  0mm 18 W/m2
15:59 40.9 °F /  4.9 °C 22.9 °F /  -5.1 °C 30.13in /  1020.2hPa WSW 0.3mph /  0.5km/h 4mph /  6.4km/h 48.3% 0.00in /  0mm 18 W/m2
16:09 40.6 °F /  4.8 °C 23.4 °F /  -4.8 °C 30.13in /  1020.2hPa Calm   1mph /  1.6km/h 50% 0.00in /  0mm 11 W/m2
16:14 40.4 °F /  4.7 °C 23 °F /  -5 °C 30.12in /  1019.9hPa WSW 0.4mph /  0.6km/h 4mph /  6.4km/h 49.4% 0.00in /  0mm 5 W/m2
16:19 40.2 °F /  4.6 °C 22.6 °F /  -5.2 °C 30.13in /  1020.2hPa WSW 0.1mph /  0.2km/h 4mph /  6.4km/h 49% 0.00in /  0mm 0 W/m2
16:24 40.1 °F /  4.5 °C 22.5 °F /  -5.3 °C 30.13in /  1020.2hPa Calm   4mph /  6.4km/h 49% 0.00in /  0mm 0 W/m2
16:29 39.9 °F /  4.4 °C 22.3 °F /  -5.4 °C 30.13in /  1020.2hPa WSW 0.1mph /  0.2km/h 4mph /  6.4km/h 49% 0.00in /  0mm 0 W/m2
16:34 39.7 °F /  4.3 °C 22.1 °F /  -5.5 °C 30.13in /  1020.2hPa Calm   4mph /  6.4km/h 49% 0.00in /  0mm 0 W/m2
16:39 39.5 °F /  4.2 °C 21.9 °F /  -5.6 °C 30.13in /  1020.2hPa Calm     49% 0.00in /  0mm 0 W/m2
16:44 39.3 °F /  4.1 °C 22 °F /  -5.6 °C 30.13in /  1020.2hPa Calm     49.6% 0.00in /  0mm 0 W/m2
16:49 39.1 °F /  3.9 °C 22 °F /  -5.6 °C 30.13in /  1020.2hPa Calm     50% 0.00in /  0mm 0 W/m2
16:54 38.8 °F /  3.8 °C 21.8 °F /  -5.7 °C 30.13in /  1020.2hPa Calm     50% 0.00in /  0mm 0 W/m2
16:59 38.6 °F /  3.7 °C 21.6 °F /  -5.8 °C 30.13in /  1020.2hPa Calm     50% 0.00in /  0mm 0 W/m2
17:04 38.4 °F /  3.6 °C 21.4 °F /  -5.9 °C 30.13in /  1020.2hPa Calm     50% 0.00in /  0mm 0 W/m2
17:09 38.3 °F /  3.5 °C 21.3 °F /  -5.9 °C 30.13in /  1020.2hPa Calm     50% 0.00in /  0mm 0 W/m2
17:14 38.1 °F /  3.4 °C 21.4 °F /  -5.9 °C 30.13in /  1020.2hPa Calm     50.4% 0.00in /  0mm 0 W/m2
17:19 38 °F /  3.3 °C 21.5 °F /  -5.8 °C 30.13in /  1020.2hPa Calm     51% 0.00in /  0mm 0 W/m2
17:24 37.8 °F /  3.2 °C 21.3 °F /  -5.9 °C 30.13in /  1020.2hPa Calm     51% 0.00in /  0mm 0 W/m2
17:29 37.7 °F /  3.2 °C 21.2 °F /  -6 °C 30.13in /  1020.2hPa Calm     51.1% 0.00in /  0mm 0 W/m2
17:34 37.6 °F /  3.1 °C 21.8 °F /  -5.7 °C 30.14in /  1020.5hPa Calm     52.5% 0.00in /  0mm 0 W/m2
17:39 37.4 °F /  3 °C 22.3 °F /  -5.4 °C 30.14in /  1020.5hPa Calm     54% 0.00in /  0mm 0 W/m2
17:44 37.3 °F /  2.9 °C 22.6 °F /  -5.2 °C 30.13in /  1020.2hPa Calm     55% 0.00in /  0mm 0 W/m2
17:49 37.1 °F /  2.8 °C 22.4 °F /  -5.3 °C 30.13in /  1020.2hPa Calm     54.8% 0.00in /  0mm 0 W/m2
17:54 37 °F /  2.8 °C 21.9 °F /  -5.6 °C 30.13in /  1020.2hPa Calm     54.1% 0.00in /  0mm 0 W/m2
17:59 36.9 °F /  2.7 °C 22.3 °F /  -5.4 °C 30.12in /  1019.9hPa Calm   1mph /  1.6km/h 55.1% 0.00in /  0mm 0 W/m2
18:04 36.7 °F /  2.6 °C 22.5 °F /  -5.3 °C 30.12in /  1019.9hPa Calm   1mph /  1.6km/h 56% 0.00in /  0mm 0 W/m2
18:09 36.6 °F /  2.6 °C 22.4 °F /  -5.3 °C 30.12in /  1019.9hPa Calm     56% 0.00in /  0mm 0 W/m2
18:14 36.5 °F /  2.5 °C 22.6 °F /  -5.2 °C 30.13in /  1020.2hPa Calm     56.8% 0.00in /  0mm 0 W/m2
18:19 36.3 °F /  2.4 °C 22.9 °F /  -5.1 °C 30.13in /  1020.2hPa WSW 0.2mph /  0.3km/h 1mph /  1.6km/h 57.8% 0.00in /  0mm 0 W/m2
18:24 36.1 °F /  2.3 °C 23 °F /  -5 °C 30.13in /  1020.2hPa WSW 0.1mph /  0.2km/h 2mph /  3.2km/h 58.8% 0.00in /  0mm 0 W/m2
18:29 35.8 °F /  2.1 °C 22.9 °F /  -5.1 °C 30.14in /  1020.5hPa WSW 0.1mph /  0.2km/h 2mph /  3.2km/h 59% 0.00in /  0mm 0 W/m2
18:34 35.6 °F /  2 °C 22.7 °F /  -5.2 °C 30.14in /  1020.5hPa WSW 0.1mph /  0.2km/h 2mph /  3.2km/h 59% 0.00in /  0mm 0 W/m2
18:39 35.5 °F /  1.9 °C 22.6 °F /  -5.2 °C 30.14in /  1020.5hPa Calm   1mph /  1.6km/h 59% 0.00in /  0mm 0 W/m2
18:44 35.4 °F /  1.9 °C 22.5 °F /  -5.3 °C 30.15in /  1020.9hPa Calm   1mph /  1.6km/h 59% 0.00in /  0mm 0 W/m2
18:49 35.3 °F /  1.8 °C 22.5 °F /  -5.3 °C 30.15in /  1020.9hPa Calm   1mph /  1.6km/h 59.1% 0.00in /  0mm 0 W/m2
18:54 35.2 °F /  1.8 °C 22.7 °F /  -5.2 °C 30.15in /  1020.9hPa WSW 0.1mph /  0.2km/h 1mph /  1.6km/h 60% 0.00in /  0mm 0 W/m2
18:59 35.1 °F /  1.7 °C 22.6 °F /  -5.2 °C 30.15in /  1020.9hPa Calm   1mph /  1.6km/h 60% 0.00in /  0mm 0 W/m2
19:04 35 °F /  1.7 °C 22.5 °F /  -5.3 °C 30.15in /  1020.9hPa Calm   1mph /  1.6km/h 60% 0.00in /  0mm 0 W/m2
19:09 34.9 °F /  1.6 °C 22.3 °F /  -5.4 °C 30.15in /  1020.9hPa WSW 0.2mph /  0.3km/h 2mph /  3.2km/h 59.7% 0.00in /  0mm 0 W/m2
19:14 34.9 °F /  1.6 °C 22.1 °F /  -5.5 °C 30.15in /  1020.9hPa Calm   2mph /  3.2km/h 59.2% 0.00in /  0mm 0 W/m2
19:19 34.9 °F /  1.6 °C 22.2 °F /  -5.4 °C 30.15in /  1020.9hPa Calm   2mph /  3.2km/h 59.5% 0.00in /  0mm 0 W/m2
19:24 34.9 °F /  1.6 °C 22.4 °F /  -5.3 °C 30.15in /  1020.9hPa Calm   2mph /  3.2km/h 59.9% 0.00in /  0mm 0 W/m2
19:29 34.8 °F /  1.6 °C 22.8 °F /  -5.1 °C 30.16in /  1021.2hPa Calm   2mph /  3.2km/h 61% 0.00in /  0mm 0 W/m2
19:34 34.8 °F /  1.6 °C 23 °F /  -5 °C 30.15in /  1020.9hPa Calm   2mph /  3.2km/h 61.8% 0.00in /  0mm 0 W/m2
19:39 34.6 °F /  1.4 °C 23 °F /  -5 °C 30.16in /  1021.2hPa Calm     62% 0.00in /  0mm 0 W/m2
19:44 34.5 °F /  1.4 °C 22.9 °F /  -5.1 °C 30.16in /  1021.2hPa Calm     62% 0.00in /  0mm 0 W/m2
19:49 34.4 °F /  1.3 °C 22.7 °F /  -5.2 °C 30.16in /  1021.2hPa Calm     62% 0.00in /  0mm 0 W/m2
19:54 34.2 °F /  1.2 °C 22.8 °F /  -5.1 °C 30.16in /  1021.2hPa Calm     62.7% 0.00in /  0mm 0 W/m2
19:59 34.1 °F /  1.2 °C 23 °F /  -5 °C 30.16in /  1021.2hPa Calm     63.5% 0.00in /  0mm 0 W/m2
20:00 34 °F /  1.1 °C 22.7 °F /  -5.2 °C 30.15in /  1020.9hPa Calm     63% 0.00in /  0mm 0 W/m2
20:09 33.9 °F /  1.1 °C 23 °F /  -5 °C 30.15in /  1020.9hPa Calm     64% 0.00in /  0mm 0 W/m2
20:14 33.8 °F /  1 °C 22.6 °F /  -5.2 °C 30.16in /  1021.2hPa Calm     63.1% 0.00in /  0mm 0 W/m2
20:19 33.8 °F /  1 °C 22.6 °F /  -5.2 °C 30.16in /  1021.2hPa Calm     63% 0.00in /  0mm 0 W/m2
20:24 33.8 °F /  1 °C 22.6 °F /  -5.2 °C 30.16in /  1021.2hPa Calm     63.2% 0.00in /  0mm 0 W/m2
20:29 33.8 °F /  1 °C 23.2 °F /  -4.9 °C 30.16in /  1021.2hPa Calm     64.6% 0.00in /  0mm 0 W/m2
20:34 33.7 °F /  0.9 °C 23.3 °F /  -4.8 °C 30.16in /  1021.2hPa Calm     65.2% 0.00in /  0mm 0 W/m2
20:39 33.6 °F /  0.9 °C 23.4 °F /  -4.8 °C 30.16in /  1021.2hPa Calm     66% 0.00in /  0mm 0 W/m2
20:44 33.4 °F /  0.8 °C 23.3 °F /  -4.8 °C 30.15in /  1020.9hPa Calm     65.9% 0.00in /  0mm 0 W/m2
20:49 33.3 °F /  0.7 °C 22.8 °F /  -5.1 °C 30.15in /  1020.9hPa Calm     65% 0.00in /  0mm 0 W/m2
20:54 33.1 °F /  0.6 °C 22.6 °F /  -5.2 °C 30.15in /  1020.9hPa Calm     65% 0.00in /  0mm 0 W/m2
20:59 33 °F /  0.6 °C 22.8 °F /  -5.1 °C 30.16in /  1021.2hPa Calm     65.7% 0.00in /  0mm 0 W/m2
21:04 32.8 °F /  0.4 °C 23.1 °F /  -4.9 °C 30.16in /  1021.2hPa Calm     66.9% 0.00in /  0mm 0 W/m2
21:09 32.7 °F /  0.4 °C 23.4 °F /  -4.8 °C 30.16in /  1021.2hPa Calm     68.3% 0.00in /  0mm 0 W/m2
21:14 32.6 °F /  0.3 °C 23.5 °F /  -4.7 °C 30.16in /  1021.2hPa Calm     69% 0.00in /  0mm 0 W/m2
21:19 32.4 °F /  0.2 °C 23.4 °F /  -4.8 °C 30.16in /  1021.2hPa Calm     69% 0.00in /  0mm 0 W/m2
21:24 32.3 °F /  0.2 °C 23.3 °F /  -4.8 °C 30.16in /  1021.2hPa Calm   1mph /  1.6km/h 69% 0.00in /  0mm 0 W/m2
21:29 32.3 °F /  0.2 °C 23.3 °F /  -4.8 °C 30.16in /  1021.2hPa Calm   1mph /  1.6km/h 69% 0.00in /  0mm 0 W/m2
21:34 32.3 °F /  0.2 °C 23.7 °F /  -4.6 °C 30.16in /  1021.2hPa Calm   1mph /  1.6km/h 70.3% 0.00in /  0mm 0 W/m2
21:39 32.3 °F /  0.2 °C 24 °F /  -4.4 °C 30.16in /  1021.2hPa Calm     71% 0.00in /  0mm 0 W/m2
21:44 32.2 °F /  0.1 °C 23.6 °F /  -4.7 °C 30.16in /  1021.2hPa Calm     70.2% 0.00in /  0mm 0 W/m2
21:49 32.2 °F /  0.1 °C 23.5 °F /  -4.7 °C 30.17in /  1021.6hPa Calm     70% 0.00in /  0mm 0 W/m2
21:54 32.2 °F /  0.1 °C 23.5 °F /  -4.7 °C 30.17in /  1021.6hPa Calm     70% 0.00in /  0mm 0 W/m2
21:59 32.2 °F /  0.1 °C 23.4 °F /  -4.8 °C 30.17in /  1021.6hPa Calm     69.6% 0.00in /  0mm 0 W/m2
22:04 32.3 °F /  0.2 °C 23 °F /  -5 °C 30.17in /  1021.6hPa Calm     68.2% 0.00in /  0mm 0 W/m2
22:09 32.5 °F /  0.3 °C 23.1 °F /  -4.9 °C 30.17in /  1021.6hPa Calm     68% 0.00in /  0mm 0 W/m2
22:14 32.6 °F /  0.3 °C 23.5 °F /  -4.7 °C 30.17in /  1021.6hPa Calm     68.8% 0.00in /  0mm 0 W/m2
22:19 32.6 °F /  0.3 °C 23.4 °F /  -4.8 °C 30.17in /  1021.6hPa Calm     68.5% 0.00in /  0mm 0 W/m2
22:24 32.6 °F /  0.3 °C 23.2 °F /  -4.9 °C 30.17in /  1021.6hPa Calm     68% 0.00in /  0mm 0 W/m2
22:29 32.6 °F /  0.3 °C 23.2 °F /  -4.9 °C 30.17in /  1021.6hPa Calm     68% 0.00in /  0mm 0 W/m2
22:34 32.6 °F /  0.3 °C 22.9 °F /  -5.1 °C 30.17in /  1021.6hPa Calm     67.1% 0.00in /  0mm 0 W/m2
22:39 32.6 °F /  0.3 °C 22.9 °F /  -5.1 °C 30.17in /  1021.6hPa Calm     67% 0.00in /  0mm 0 W/m2
22:44 32.5 °F /  0.3 °C 22.8 °F /  -5.1 °C 30.17in /  1021.6hPa Calm     67% 0.00in /  0mm 0 W/m2
22:49 32.5 °F /  0.3 °C 22.9 °F /  -5.1 °C 30.17in /  1021.6hPa Calm     67.3% 0.00in /  0mm 0 W/m2
22:54 32.5 °F /  0.3 °C 23.2 °F /  -4.9 °C 30.17in /  1021.6hPa Calm     68.4% 0.00in /  0mm 0 W/m2
22:59 32.4 °F /  0.2 °C 23.5 °F /  -4.7 °C 30.17in /  1021.6hPa Calm     69.4% 0.00in /  0mm 0 W/m2
23:09 32.3 °F /  0.2 °C 24 °F /  -4.4 °C 30.17in /  1021.6hPa Calm     71% 0.00in /  0mm 0 W/m2
23:14 32.3 °F /  0.2 °C 24.1 °F /  -4.4 °C 30.17in /  1021.6hPa Calm     71.3% 0.00in /  0mm 0 W/m2
23:19 32.3 °F /  0.2 °C 24.3 °F /  -4.3 °C 30.17in /  1021.6hPa Calm   2mph /  3.2km/h 72.1% 0.00in /  0mm 0 W/m2
23:24 32.3 °F /  0.2 °C 24.6 °F /  -4.1 °C 30.16in /  1021.2hPa Calm   2mph /  3.2km/h 73% 0.00in /  0mm 0 W/m2
23:29 32.2 °F /  0.1 °C 24.3 °F /  -4.3 °C 30.16in /  1021.2hPa Calm   2mph /  3.2km/h 72.2% 0.00in /  0mm 0 W/m2
23:34 32.2 °F /  0.1 °C 24.6 °F /  -4.1 °C 30.16in /  1021.2hPa Calm   2mph /  3.2km/h 73.3% 0.00in /  0mm 0 W/m2
23:39 32.3 °F /  0.2 °C 24.9 °F /  -3.9 °C 30.16in /  1021.2hPa Calm     74% 0.00in /  0mm 0 W/m2
23:44 32.3 °F /  0.2 °C 25 °F /  -3.9 °C 30.16in /  1021.2hPa Calm     74% 0.00in /  0mm 0 W/m2
23:49 32.3 °F /  0.2 °C 25.1 °F /  -3.8 °C 30.16in /  1021.2hPa Calm     74.4% 0.00in /  0mm 0 W/m2
23:54 32.4 °F /  0.2 °C 25.3 °F /  -3.7 °C 30.16in /  1021.2hPa Calm     75% 0.00in /  0mm 0 W/m2
23:59 32.4 °F /  0.2 °C 25.4 °F /  -3.7 °C 30.15in /  1020.9hPa Calm     75% 0.00in /  0mm 0 W/m2
Hartford County Weather
Compliments of Weather Underground - 2 mb